sensor_id;sensor_type;location;lat;lon;timestamp;pressure;altitude;pressure_sealevel;temperature;humidity
72226;BME280;60130;52.250;5.048;2023-08-06T00:00:00;1005.1;;;15.5;92.6
72226;BME280;60130;52.250;5.048;2023-08-06T00:05:00;1005.1;;;15.6;92.5
72226;BME280;60130;52.250;5.048;2023-08-06T00:10:00;1005.2;;;15.6;92.4
72226;BME280;60130;52.250;5.048;2023-08-06T00:15:00;1005.2;;;15.6;92.3
72226;BME280;60130;52.250;5.048;2023-08-06T00:20:00;1005.1;;;15.6;92.3
72226;BME280;60130;52.250;5.048;2023-08-06T00:25:00;1005.1;;;15.6;92.3
72226;BME280;60130;52.250;5.048;2023-08-06T00:30:00;1005.1;;;15.6;92.4
72226;BME280;60130;52.250;5.048;2023-08-06T00:35:00;1005.1;;;15.6;92.2
72226;BME280;60130;52.250;5.048;2023-08-06T00:40:00;1005.2;;;15.6;92.3
72226;BME280;60130;52.250;5.048;2023-08-06T00:45:00;1005.2;;;15.6;92.3
72226;BME280;60130;52.250;5.048;2023-08-06T00:50:01;1005.1;;;15.6;92.2
72226;BME280;60130;52.250;5.048;2023-08-06T00:55:00;1005.2;;;15.6;92.1
72226;BME280;60130;52.250;5.048;2023-08-06T01:00:00;1005.1;;;15.6;92.2
72226;BME280;60130;52.250;5.048;2023-08-06T01:05:00;1005.2;;;15.6;92.3
72226;BME280;60130;52.250;5.048;2023-08-06T01:10:10;1005.1;;;15.5;92.2
72226;BME280;60130;52.250;5.048;2023-08-06T01:15:04;1005.1;;;15.6;92.1
72226;BME280;60130;52.250;5.048;2023-08-06T01:20:00;1005.1;;;15.7;92.0
72226;BME280;60130;52.250;5.048;2023-08-06T01:25:00;1005.1;;;15.7;91.8
72226;BME280;60130;52.250;5.048;2023-08-06T01:30:04;1005.0;;;15.7;91.7
72226;BME280;60130;52.250;5.048;2023-08-06T01:35:00;1005.1;;;15.6;91.6
72226;BME280;60130;52.250;5.048;2023-08-06T01:40:00;1005.1;;;15.7;91.5
72226;BME280;60130;52.250;5.048;2023-08-06T01:45:00;1005.1;;;15.6;91.6
72226;BME280;60130;52.250;5.048;2023-08-06T01:50:00;1005.2;;;15.6;91.6
72226;BME280;60130;52.250;5.048;2023-08-06T01:55:00;1005.2;;;15.6;91.6
72226;BME280;60130;52.250;5.048;2023-08-06T02:00:00;1005.2;;;15.6;91.6
72226;BME280;60130;52.250;5.048;2023-08-06T02:05:00;1005.1;;;15.7;91.5
72226;BME280;60130;52.250;5.048;2023-08-06T02:10:00;1005.2;;;15.8;91.3
72226;BME280;60130;52.250;5.048;2023-08-06T02:15:00;1005.2;;;15.8;91.0
72226;BME280;60130;52.250;5.048;2023-08-06T02:20:00;1005.2;;;15.8;91.2
72226;BME280;60130;52.250;5.048;2023-08-06T02:25:00;1005.2;;;15.9;91.3
72226;BME280;60130;52.250;5.048;2023-08-06T02:30:00;1005.2;;;16.0;91.1
72226;BME280;60130;52.250;5.048;2023-08-06T02:35:00;1005.2;;;15.9;91.1
72226;BME280;60130;52.250;5.048;2023-08-06T02:40:00;1005.2;;;16.0;90.9
72226;BME280;60130;52.250;5.048;2023-08-06T02:45:00;1005.2;;;15.9;91.0
72226;BME280;60130;52.250;5.048;2023-08-06T02:50:00;1005.2;;;16.0;90.9
72226;BME280;60130;52.250;5.048;2023-08-06T02:55:00;1005.2;;;16.1;90.7
72226;BME280;60130;52.250;5.048;2023-08-06T03:00:00;1005.2;;;16.1;90.8
72226;BME280;60130;52.250;5.048;2023-08-06T03:05:00;1005.2;;;16.1;90.6
72226;BME280;60130;52.250;5.048;2023-08-06T03:10:00;1005.1;;;16.0;90.6
72226;BME280;60130;52.250;5.048;2023-08-06T03:15:00;1005.1;;;16.0;90.7
72226;BME280;60130;52.250;5.048;2023-08-06T03:20:00;1005.1;;;16.0;90.8
72226;BME280;60130;52.250;5.048;2023-08-06T03:25:00;1005.1;;;15.9;91.0
72226;BME280;60130;52.250;5.048;2023-08-06T03:30:00;1005.1;;;15.9;90.8
72226;BME280;60130;52.250;5.048;2023-08-06T03:35:00;1005.1;;;15.9;91.1
72226;BME280;60130;52.250;5.048;2023-08-06T03:40:00;1005.1;;;15.9;91.0
72226;BME280;60130;52.250;5.048;2023-08-06T03:45:00;1005.1;;;15.9;91.1
72226;BME280;60130;52.250;5.048;2023-08-06T03:50:00;1005.1;;;16.0;90.8
72226;BME280;60130;52.250;5.048;2023-08-06T03:55:00;1005.2;;;15.9;90.9
72226;BME280;60130;52.250;5.048;2023-08-06T04:00:00;1005.2;;;16.1;90.8
72226;BME280;60130;52.250;5.048;2023-08-06T04:05:00;1005.2;;;16.2;90.3
72226;BME280;60130;52.250;5.048;2023-08-06T04:10:02;1005.2;;;16.2;90.2
72226;BME280;60130;52.250;5.048;2023-08-06T04:15:00;1005.3;;;16.1;90.3
72226;BME280;60130;52.250;5.048;2023-08-06T04:20:00;1005.3;;;16.1;90.4
72226;BME280;60130;52.250;5.048;2023-08-06T04:25:00;1005.3;;;16.1;90.4
72226;BME280;60130;52.250;5.048;2023-08-06T04:30:00;1005.3;;;16.0;90.6
72226;BME280;60130;52.250;5.048;2023-08-06T04:35:00;1005.3;;;16.0;90.6
72226;BME280;60130;52.250;5.048;2023-08-06T04:40:00;1005.4;;;16.2;90.2
72226;BME280;60130;52.250;5.048;2023-08-06T04:45:01;1005.4;;;16.2;90.0
72226;BME280;60130;52.250;5.048;2023-08-06T04:50:00;1005.5;;;16.2;90.1
72226;BME280;60130;52.250;5.048;2023-08-06T04:55:00;1005.5;;;16.2;90.3
72226;BME280;60130;52.250;5.048;2023-08-06T05:00:00;1005.5;;;16.3;90.6
72226;BME280;60130;52.250;5.048;2023-08-06T05:05:00;1005.6;;;16.3;90.0
72226;BME280;60130;52.250;5.048;2023-08-06T05:10:00;1005.7;;;16.3;90.2
72226;BME280;60130;52.250;5.048;2023-08-06T05:15:00;1005.7;;;16.3;90.2
72226;BME280;60130;52.250;5.048;2023-08-06T05:20:00;1005.8;;;16.3;90.5
72226;BME280;60130;52.250;5.048;2023-08-06T05:25:00;1005.9;;;16.3;90.5
72226;BME280;60130;52.250;5.048;2023-08-06T05:30:00;1005.9;;;16.1;90.8
72226;BME280;60130;52.250;5.048;2023-08-06T05:35:00;1005.9;;;15.8;90.8
72226;BME280;60130;52.250;5.048;2023-08-06T05:40:00;1006.0;;;15.6;91.3
72226;BME280;60130;52.250;5.048;2023-08-06T05:45:00;1006.1;;;15.3;91.7
72226;BME280;60130;52.250;5.048;2023-08-06T05:50:00;1006.2;;;15.3;92.1
72226;BME280;60130;52.250;5.048;2023-08-06T05:55:00;1006.2;;;15.3;92.1
72226;BME280;60130;52.250;5.048;2023-08-06T06:00:00;1006.2;;;15.2;92.3
72226;BME280;60130;52.250;5.048;2023-08-06T06:05:00;1006.3;;;15.3;92.6
72226;BME280;60130;52.250;5.048;2023-08-06T06:10:00;1006.3;;;15.4;92.4
72226;BME280;60130;52.250;5.048;2023-08-06T06:15:00;1006.3;;;15.3;92.4
72226;BME280;60130;52.250;5.048;2023-08-06T06:20:00;1006.4;;;15.2;92.7
72226;BME280;60130;52.250;5.048;2023-08-06T06:25:00;1006.4;;;15.1;92.8
72226;BME280;60130;52.250;5.048;2023-08-06T06:30:01;1006.5;;;15.0;93.0
72226;BME280;60130;52.250;5.048;2023-08-06T06:35:00;1006.5;;;15.1;92.9
72226;BME280;60130;52.250;5.048;2023-08-06T06:40:00;1006.6;;;15.1;92.7
72226;BME280;60130;52.250;5.048;2023-08-06T06:45:00;1006.7;;;15.2;92.7
72226;BME280;60130;52.250;5.048;2023-08-06T06:50:00;1006.6;;;15.2;92.5
72226;BME280;60130;52.250;5.048;2023-08-06T06:55:00;1006.7;;;15.0;92.4
72226;BME280;60130;52.250;5.048;2023-08-06T07:00:00;1006.8;;;15.0;92.3
72226;BME280;60130;52.250;5.048;2023-08-06T07:05:00;1006.8;;;14.9;91.8
72226;BME280;60130;52.250;5.048;2023-08-06T07:10:00;1006.8;;;14.7;91.5
72226;BME280;60130;52.250;5.048;2023-08-06T07:15:00;1006.8;;;14.7;91.9
72226;BME280;60130;52.250;5.048;2023-08-06T07:20:00;1006.9;;;14.6;91.4
72226;BME280;60130;52.250;5.048;2023-08-06T07:25:00;1007.0;;;14.6;91.7
72226;BME280;60130;52.250;5.048;2023-08-06T07:30:00;1007.0;;;14.7;91.8
72226;BME280;60130;52.250;5.048;2023-08-06T07:35:00;1007.1;;;14.7;91.7
72226;BME280;60130;52.250;5.048;2023-08-06T07:40:00;1007.1;;;14.8;91.8
72226;BME280;60130;52.250;5.048;2023-08-06T07:45:02;1007.2;;;14.9;91.8
72226;BME280;60130;52.250;5.048;2023-08-06T07:50:00;1007.2;;;15.0;92.0
72226;BME280;60130;52.250;5.048;2023-08-06T07:55:00;1007.2;;;15.0;92.0
72226;BME280;60130;52.250;5.048;2023-08-06T08:00:00;1007.2;;;15.0;92.0
72226;BME280;60130;52.250;5.048;2023-08-06T08:05:00;1007.2;;;15.0;92.0
72226;BME280;60130;52.250;5.048;2023-08-06T08:10:00;1007.2;;;14.9;91.9
72226;BME280;60130;52.250;5.048;2023-08-06T08:15:00;1007.2;;;14.9;92.2
72226;BME280;60130;52.250;5.048;2023-08-06T08:20:00;1007.2;;;15.1;92.5
72226;BME280;60130;52.250;5.048;2023-08-06T08:25:01;1007.2;;;15.1;92.2
72226;BME280;60130;52.250;5.048;2023-08-06T08:30:00;1007.3;;;15.2;92.4
72226;BME280;60130;52.250;5.048;2023-08-06T08:35:00;1007.3;;;15.3;92.4
72226;BME280;60130;52.250;5.048;2023-08-06T08:40:00;1007.3;;;15.4;92.5
72226;BME280;60130;52.250;5.048;2023-08-06T08:45:00;1007.4;;;15.5;92.5
72226;BME280;60130;52.250;5.048;2023-08-06T08:50:00;1007.4;;;15.5;92.6
72226;BME280;60130;52.250;5.048;2023-08-06T08:55:01;1007.4;;;15.5;92.6
72226;BME280;60130;52.250;5.048;2023-08-06T09:00:01;1007.4;;;15.6;92.7
72226;BME280;60130;52.250;5.048;2023-08-06T09:05:01;1007.5;;;15.6;92.7
72226;BME280;60130;52.250;5.048;2023-08-06T09:10:02;1007.5;;;15.6;92.4
72226;BME280;60130;52.250;5.048;2023-08-06T09:15:00;1007.6;;;15.6;92.7
72226;BME280;60130;52.250;5.048;2023-08-06T09:20:09;1007.7;;;15.6;92.4
72226;BME280;60130;52.250;5.048;2023-08-06T09:25:00;1007.7;;;15.6;92.5
72226;BME280;60130;52.250;5.048;2023-08-06T09:30:00;1007.8;;;15.5;92.2
72226;BME280;60130;52.250;5.048;2023-08-06T09:35:00;1007.9;;;15.6;92.3
72226;BME280;60130;52.250;5.048;2023-08-06T09:40:00;1008.0;;;15.5;92.2
72226;BME280;60130;52.250;5.048;2023-08-06T09:45:05;1008.0;;;15.6;92.4
72226;BME280;60130;52.250;5.048;2023-08-06T09:50:00;1008.1;;;15.7;92.2
72226;BME280;60130;52.250;5.048;2023-08-06T09:55:00;1008.2;;;15.9;92.4
72226;BME280;60130;52.250;5.048;2023-08-06T10:00:01;1008.3;;;15.9;92.1
72226;BME280;60130;52.250;5.048;2023-08-06T10:05:00;1008.3;;;16.0;92.0
72226;BME280;60130;52.250;5.048;2023-08-06T10:10:01;1008.2;;;16.0;91.5
72226;BME280;60130;52.250;5.048;2023-08-06T10:15:03;1008.3;;;16.1;91.8
72226;BME280;60130;52.250;5.048;2023-08-06T10:20:00;1008.3;;;16.1;91.7
72226;BME280;60130;52.250;5.048;2023-08-06T10:25:01;1008.3;;;16.1;91.5
72226;BME280;60130;52.250;5.048;2023-08-06T10:35:00;1008.3;;;16.2;91.3
72226;BME280;60130;52.250;5.048;2023-08-06T10:40:00;1008.3;;;16.3;91.2
72226;BME280;60130;52.250;5.048;2023-08-06T10:45:11;1008.4;;;16.5;91.2
72226;BME280;60130;52.250;5.048;2023-08-06T10:50:00;1008.3;;;16.6;91.2
72226;BME280;60130;52.250;5.048;2023-08-06T10:55:00;1008.4;;;16.5;90.6
72226;BME280;60130;52.250;5.048;2023-08-06T11:00:01;1008.5;;;16.4;90.2
72226;BME280;60130;52.250;5.048;2023-08-06T11:05:04;1008.5;;;16.4;90.7
72226;BME280;60130;52.250;5.048;2023-08-06T11:10:02;1008.6;;;16.3;90.6
72226;BME280;60130;52.250;5.048;2023-08-06T11:15:01;1008.7;;;16.2;90.3
72226;BME280;60130;52.250;5.048;2023-08-06T11:20:00;1008.7;;;16.3;90.7
72226;BME280;60130;52.250;5.048;2023-08-06T11:25:00;1008.7;;;16.3;90.6
72226;BME280;60130;52.250;5.048;2023-08-06T11:30:00;1008.7;;;16.1;90.4
72226;BME280;60130;52.250;5.048;2023-08-06T11:35:09;1008.7;;;16.1;90.7
72226;BME280;60130;52.250;5.048;2023-08-06T11:40:00;1008.7;;;16.1;90.6
72226;BME280;60130;52.250;5.048;2023-08-06T11:45:02;1008.8;;;16.2;90.4
72226;BME280;60130;52.250;5.048;2023-08-06T11:50:00;1008.8;;;16.2;90.0
72226;BME280;60130;52.250;5.048;2023-08-06T11:55:01;1008.8;;;16.2;90.1
72226;BME280;60130;52.250;5.048;2023-08-06T12:00:02;1008.8;;;16.3;90.1
72226;BME280;60130;52.250;5.048;2023-08-06T12:05:01;1008.8;;;16.4;90.3
72226;BME280;60130;52.250;5.048;2023-08-06T12:10:00;1008.9;;;16.4;89.7
72226;BME280;60130;52.250;5.048;2023-08-06T12:15:00;1008.9;;;16.6;89.7
72226;BME280;60130;52.250;5.048;2023-08-06T12:20:00;1008.9;;;16.6;89.8
72226;BME280;60130;52.250;5.048;2023-08-06T12:25:01;1008.9;;;16.5;89.8
72226;BME280;60130;52.250;5.048;2023-08-06T12:30:00;1008.9;;;16.5;89.6
72226;BME280;60130;52.250;5.048;2023-08-06T12:35:00;1008.9;;;16.5;89.1
72226;BME280;60130;52.250;5.048;2023-08-06T12:40:00;1009.0;;;16.7;89.4
72226;BME280;60130;52.250;5.048;2023-08-06T12:45:00;1009.0;;;16.9;89.0
72226;BME280;60130;52.250;5.048;2023-08-06T12:50:00;1009.0;;;16.9;89.0
72226;BME280;60130;52.250;5.048;2023-08-06T12:55:00;1009.2;;;17.0;88.9
72226;BME280;60130;52.250;5.048;2023-08-06T13:00:00;1009.2;;;17.0;89.4
72226;BME280;60130;52.250;5.048;2023-08-06T13:05:00;1009.3;;;17.0;89.2
72226;BME280;60130;52.250;5.048;2023-08-06T13:10:00;1009.3;;;16.9;88.9
72226;BME280;60130;52.250;5.048;2023-08-06T13:15:00;1009.3;;;16.8;89.4
72226;BME280;60130;52.250;5.048;2023-08-06T13:20:00;1009.4;;;17.0;89.3
72226;BME280;60130;52.250;5.048;2023-08-06T13:25:00;1009.4;;;17.1;88.7
72226;BME280;60130;52.250;5.048;2023-08-06T13:30:00;1009.4;;;17.2;88.3
72226;BME280;60130;52.250;5.048;2023-08-06T13:35:00;1009.4;;;17.2;87.7
72226;BME280;60130;52.250;5.048;2023-08-06T13:40:00;1009.5;;;17.3;87.6
72226;BME280;60130;52.250;5.048;2023-08-06T13:45:00;1009.5;;;17.3;87.4
72226;BME280;60130;52.250;5.048;2023-08-06T13:50:00;1009.6;;;17.1;87.4
72226;BME280;60130;52.250;5.048;2023-08-06T13:55:00;1009.7;;;17.1;87.3
72226;BME280;60130;52.250;5.048;2023-08-06T14:00:00;1009.7;;;17.6;87.7
72226;BME280;60130;52.250;5.048;2023-08-06T14:05:00;1009.7;;;17.6;86.1
72226;BME280;60130;52.250;5.048;2023-08-06T14:10:00;1009.7;;;17.3;85.7
72226;BME280;60130;52.250;5.048;2023-08-06T14:15:00;1009.8;;;17.4;86.4
72226;BME280;60130;52.250;5.048;2023-08-06T14:20:00;1009.8;;;17.5;85.5
72226;BME280;60130;52.250;5.048;2023-08-06T14:25:00;1009.9;;;17.5;85.3
72226;BME280;60130;52.250;5.048;2023-08-06T14:30:00;1010.0;;;17.2;84.6
72226;BME280;60130;52.250;5.048;2023-08-06T14:35:00;1010.2;;;16.7;86.4
72226;BME280;60130;52.250;5.048;2023-08-06T14:40:00;1010.3;;;16.4;88.1
72226;BME280;60130;52.250;5.048;2023-08-06T14:45:00;1010.3;;;16.3;88.8
72226;BME280;60130;52.250;5.048;2023-08-06T14:50:00;1010.4;;;16.3;87.8
72226;BME280;60130;52.250;5.048;2023-08-06T14:55:00;1010.5;;;16.2;86.2
72226;BME280;60130;52.250;5.048;2023-08-06T15:00:00;1010.5;;;16.3;86.2
72226;BME280;60130;52.250;5.048;2023-08-06T15:05:00;1010.6;;;16.3;85.3
72226;BME280;60130;52.250;5.048;2023-08-06T15:10:00;1010.8;;;16.4;84.3
72226;BME280;60130;52.250;5.048;2023-08-06T15:15:00;1010.9;;;16.3;83.7
72226;BME280;60130;52.250;5.048;2023-08-06T15:20:00;1010.9;;;16.3;84.6
72226;BME280;60130;52.250;5.048;2023-08-06T15:25:00;1010.9;;;16.4;83.3
72226;BME280;60130;52.250;5.048;2023-08-06T15:30:00;1011.1;;;16.4;82.9
72226;BME280;60130;52.250;5.048;2023-08-06T15:35:00;1011.1;;;16.5;82.6
72226;BME280;60130;52.250;5.048;2023-08-06T15:40:00;1011.2;;;16.6;81.0
72226;BME280;60130;52.250;5.048;2023-08-06T15:45:00;1011.3;;;16.4;82.2
72226;BME280;60130;52.250;5.048;2023-08-06T15:50:00;1011.3;;;16.6;82.3
72226;BME280;60130;52.250;5.048;2023-08-06T15:55:00;1011.4;;;16.6;80.5
72226;BME280;60130;52.250;5.048;2023-08-06T16:00:00;1011.5;;;16.6;80.6
72226;BME280;60130;52.250;5.048;2023-08-06T16:05:00;1011.6;;;16.6;80.0
72226;BME280;60130;52.250;5.048;2023-08-06T16:10:00;1011.6;;;16.6;80.6
72226;BME280;60130;52.250;5.048;2023-08-06T16:15:00;1011.6;;;16.5;80.2
72226;BME280;60130;52.250;5.048;2023-08-06T16:20:00;1011.7;;;16.5;80.3
72226;BME280;60130;52.250;5.048;2023-08-06T16:25:00;1011.8;;;16.4;80.8
72226;BME280;60130;52.250;5.048;2023-08-06T16:30:00;1011.8;;;16.6;78.3
72226;BME280;60130;52.250;5.048;2023-08-06T16:35:00;1012.0;;;16.6;78.6
72226;BME280;60130;52.250;5.048;2023-08-06T16:40:00;1012.1;;;16.1;81.7
72226;BME280;60130;52.250;5.048;2023-08-06T16:45:00;1012.0;;;15.7;84.3
72226;BME280;60130;52.250;5.048;2023-08-06T16:50:00;1012.1;;;15.7;84.4
72226;BME280;60130;52.250;5.048;2023-08-06T16:55:00;1012.1;;;15.6;85.0
72226;BME280;60130;52.250;5.048;2023-08-06T17:00:00;1012.1;;;15.7;84.9
72226;BME280;60130;52.250;5.048;2023-08-06T17:05:00;1012.2;;;15.6;84.1
72226;BME280;60130;52.250;5.048;2023-08-06T17:10:00;1012.2;;;15.7;83.2
72226;BME280;60130;52.250;5.048;2023-08-06T17:15:00;1012.2;;;16.0;81.9
72226;BME280;60130;52.250;5.048;2023-08-06T17:20:00;1012.3;;;16.1;81.3
72226;BME280;60130;52.250;5.048;2023-08-06T17:25:00;1012.3;;;15.8;80.7
72226;BME280;60130;52.250;5.048;2023-08-06T17:30:00;1012.3;;;15.7;81.1
72226;BME280;60130;52.250;5.048;2023-08-06T17:35:00;1012.3;;;15.7;81.7
72226;BME280;60130;52.250;5.048;2023-08-06T17:40:00;1012.4;;;15.7;81.6
72226;BME280;60130;52.250;5.048;2023-08-06T17:45:00;1012.4;;;15.9;80.9
72226;BME280;60130;52.250;5.048;2023-08-06T17:50:00;1012.4;;;15.9;80.3
72226;BME280;60130;52.250;5.048;2023-08-06T17:55:00;1012.4;;;16.0;80.8
72226;BME280;60130;52.250;5.048;2023-08-06T18:00:00;1012.4;;;15.7;81.8
72226;BME280;60130;52.250;5.048;2023-08-06T18:05:00;1012.5;;;15.5;82.4
72226;BME280;60130;52.250;5.048;2023-08-06T18:10:00;1012.6;;;15.0;86.8
72226;BME280;60130;52.250;5.048;2023-08-06T18:15:00;1012.6;;;14.9;87.6
72226;BME280;60130;52.250;5.048;2023-08-06T18:20:00;1012.6;;;14.9;88.0
72226;BME280;60130;52.250;5.048;2023-08-06T18:25:00;1012.5;;;15.0;87.7
72226;BME280;60130;52.250;5.048;2023-08-06T18:30:00;1012.6;;;14.8;89.4
72226;BME280;60130;52.250;5.048;2023-08-06T18:35:00;1012.5;;;14.6;90.5
72226;BME280;60130;52.250;5.048;2023-08-06T18:40:00;1012.6;;;14.6;90.2
72226;BME280;60130;52.250;5.048;2023-08-06T18:45:00;1012.5;;;14.7;89.9
72226;BME280;60130;52.250;5.048;2023-08-06T18:50:00;1012.5;;;14.7;90.3
72226;BME280;60130;52.250;5.048;2023-08-06T18:55:00;1012.6;;;14.6;91.0
72226;BME280;60130;52.250;5.048;2023-08-06T19:00:00;1012.5;;;14.5;91.3
72226;BME280;60130;52.250;5.048;2023-08-06T19:05:00;1012.5;;;14.5;91.4
72226;BME280;60130;52.250;5.048;2023-08-06T19:10:00;1012.5;;;14.5;91.4
72226;BME280;60130;52.250;5.048;2023-08-06T19:15:00;1012.6;;;14.4;91.8
72226;BME280;60130;52.250;5.048;2023-08-06T19:20:00;1012.5;;;14.4;92.1
72226;BME280;60130;52.250;5.048;2023-08-06T19:25:00;1012.5;;;14.4;92.3
72226;BME280;60130;52.250;5.048;2023-08-06T19:30:00;1012.5;;;14.4;92.2
72226;BME280;60130;52.250;5.048;2023-08-06T19:35:00;1012.6;;;14.4;92.2
72226;BME280;60130;52.250;5.048;2023-08-06T19:40:00;1012.6;;;14.4;92.4
72226;BME280;60130;52.250;5.048;2023-08-06T19:45:00;1012.6;;;14.5;92.3
72226;BME280;60130;52.250;5.048;2023-08-06T19:50:00;1012.7;;;14.4;91.8
72226;BME280;60130;52.250;5.048;2023-08-06T19:55:00;1012.8;;;14.4;91.8
72226;BME280;60130;52.250;5.048;2023-08-06T20:00:00;1012.7;;;14.3;92.0
72226;BME280;60130;52.250;5.048;2023-08-06T20:05:00;1012.8;;;14.2;92.2
72226;BME280;60130;52.250;5.048;2023-08-06T20:10:00;1012.7;;;14.2;92.4
72226;BME280;60130;52.250;5.048;2023-08-06T20:15:00;1012.7;;;14.2;92.9
72226;BME280;60130;52.250;5.048;2023-08-06T20:20:00;1012.7;;;14.2;93.1
72226;BME280;60130;52.250;5.048;2023-08-06T20:25:00;1012.6;;;14.2;92.9
72226;BME280;60130;52.250;5.048;2023-08-06T20:30:00;1012.7;;;14.3;93.0
72226;BME280;60130;52.250;5.048;2023-08-06T20:35:00;1012.7;;;14.3;92.3
72226;BME280;60130;52.250;5.048;2023-08-06T20:40:00;1012.8;;;14.4;92.2
72226;BME280;60130;52.250;5.048;2023-08-06T20:45:00;1012.8;;;14.4;92.1
72226;BME280;60130;52.250;5.048;2023-08-06T20:50:00;1012.9;;;14.3;91.9
72226;BME280;60130;52.250;5.048;2023-08-06T20:55:00;1012.9;;;14.4;91.6
72226;BME280;60130;52.250;5.048;2023-08-06T21:00:00;1013.0;;;14.3;91.7
72226;BME280;60130;52.250;5.048;2023-08-06T21:05:00;1013.0;;;14.2;91.8
72226;BME280;60130;52.250;5.048;2023-08-06T21:10:00;1013.1;;;14.2;91.6
72226;BME280;60130;52.250;5.048;2023-08-06T21:15:00;1013.1;;;14.1;92.0
72226;BME280;60130;52.250;5.048;2023-08-06T21:20:00;1013.2;;;14.1;92.3
72226;BME280;60130;52.250;5.048;2023-08-06T21:25:00;1013.2;;;14.1;92.3
72226;BME280;60130;52.250;5.048;2023-08-06T21:30:00;1013.2;;;14.1;92.0
72226;BME280;60130;52.250;5.048;2023-08-06T21:35:00;1013.3;;;14.1;91.0
72226;BME280;60130;52.250;5.048;2023-08-06T21:40:00;1013.4;;;14.1;91.0
72226;BME280;60130;52.250;5.048;2023-08-06T21:45:00;1013.3;;;14.2;90.4
72226;BME280;60130;52.250;5.048;2023-08-06T21:50:00;1013.3;;;14.2;90.2
72226;BME280;60130;52.250;5.048;2023-08-06T21:55:00;1013.3;;;14.1;90.2
72226;BME280;60130;52.250;5.048;2023-08-06T22:00:00;1013.3;;;14.2;89.4
72226;BME280;60130;52.250;5.048;2023-08-06T22:05:00;1013.2;;;14.3;88.6
72226;BME280;60130;52.250;5.048;2023-08-06T22:10:00;1013.3;;;14.4;88.2
72226;BME280;60130;52.250;5.048;2023-08-06T22:15:00;1013.4;;;14.4;88.7
72226;BME280;60130;52.250;5.048;2023-08-06T22:20:00;1013.4;;;14.4;88.5
72226;BME280;60130;52.250;5.048;2023-08-06T22:25:00;1013.5;;;14.3;89.5
72226;BME280;60130;52.250;5.048;2023-08-06T22:30:00;1013.4;;;14.2;90.2
72226;BME280;60130;52.250;5.048;2023-08-06T22:35:00;1013.4;;;14.2;90.3
72226;BME280;60130;52.250;5.048;2023-08-06T22:40:00;1013.4;;;14.2;90.1
72226;BME280;60130;52.250;5.048;2023-08-06T22:45:00;1013.4;;;14.2;90.2
72226;BME280;60130;52.250;5.048;2023-08-06T22:50:00;1013.5;;;14.2;90.8
72226;BME280;60130;52.250;5.048;2023-08-06T22:55:00;1013.4;;;14.0;91.6
72226;BME280;60130;52.250;5.048;2023-08-06T23:00:00;1013.5;;;14.0;91.5
72226;BME280;60130;52.250;5.048;2023-08-06T23:05:00;1013.4;;;14.0;91.7
72226;BME280;60130;52.250;5.048;2023-08-06T23:10:00;1013.4;;;14.1;91.0
72226;BME280;60130;52.250;5.048;2023-08-06T23:15:00;1013.5;;;14.1;90.7
72226;BME280;60130;52.250;5.048;2023-08-06T23:20:01;1013.5;;;14.1;90.6
72226;BME280;60130;52.250;5.048;2023-08-06T23:25:00;1013.5;;;14.2;90.4
72226;BME280;60130;52.250;5.048;2023-08-06T23:30:00;1013.5;;;14.2;90.3
72226;BME280;60130;52.250;5.048;2023-08-06T23:35:00;1013.7;;;14.2;90.4
72226;BME280;60130;52.250;5.048;2023-08-06T23:40:00;1013.7;;;14.3;90.4
72226;BME280;60130;52.250;5.048;2023-08-06T23:45:00;1013.6;;;14.4;90.9
72226;BME280;60130;52.250;5.048;2023-08-06T23:50:00;1013.6;;;14.4;90.9
72226;BME280;60130;52.250;5.048;2023-08-06T23:55:00;1013.7;;;14.3;91.2
